createdAt,value
2018-09-07T00:03:25.807Z,16.57
2018-09-07T00:08:28.889Z,22.43
2018-09-07T00:13:31.965Z,16.50
2018-09-07T00:18:35.176Z,21.80
2018-09-07T00:23:38.261Z,12.93
2018-09-07T00:28:41.350Z,19.97
2018-09-07T00:33:44.481Z,17.70
2018-09-07T00:38:47.559Z,15.23
2018-09-07T00:43:50.690Z,20.40
2018-09-07T00:48:53.767Z,16.10
2018-09-07T00:53:56.854Z,20.70
2018-09-07T00:58:59.931Z,24.80
2018-09-07T01:04:03.025Z,21.60
2018-09-07T01:09:06.469Z,20.47
2018-09-07T01:14:09.574Z,25.30
2018-09-07T01:19:12.678Z,19.40
2018-09-07T01:24:15.767Z,22.73
2018-09-07T01:29:18.859Z,25.53
2018-09-07T01:34:27.166Z,18.67
2018-09-07T01:39:30.258Z,22.43
2018-09-07T01:44:33.342Z,25.27
2018-09-07T01:49:36.427Z,20.10
2018-09-07T01:54:39.554Z,25.10
2018-09-07T01:59:42.599Z,16.13
2018-09-07T02:04:45.672Z,18.43
2018-09-07T02:09:48.737Z,21.83
2018-09-07T02:14:55.898Z,22.87
2018-09-07T02:19:59.162Z,23.90
2018-09-07T02:25:02.230Z,16.80
2018-09-07T02:30:05.385Z,25.07
2018-09-07T02:35:08.618Z,21.40
2018-09-07T02:40:11.749Z,25.40
2018-09-07T02:45:14.777Z,22.07
2018-09-07T02:50:17.865Z,22.70
2018-09-07T02:55:20.978Z,19.27
2018-09-07T03:00:24.099Z,24.37
2018-09-07T03:05:27.224Z,25.40
2018-09-07T03:10:30.347Z,25.60
2018-09-07T03:15:33.452Z,21.13
2018-09-07T03:20:36.564Z,25.13
2018-09-07T03:25:39.696Z,26.03
2018-09-07T03:30:42.803Z,20.03
2018-09-07T03:35:52.588Z,28.77
2018-09-07T03:40:55.702Z,25.43
2018-09-07T03:45:58.821Z,15.17
2018-09-07T03:51:01.922Z,17.00
2018-09-07T03:56:05.023Z,26.73
2018-09-07T04:01:08.131Z,24.90
2018-09-07T04:06:11.235Z,23.30
2018-09-07T04:11:14.403Z,24.70
2018-09-07T04:16:17.531Z,18.93
2018-09-07T04:21:20.647Z,24.37
2018-09-07T04:26:23.762Z,26.80
2018-09-07T04:31:26.860Z,25.60
2018-09-07T04:36:29.963Z,34.50
2018-09-07T04:41:33.055Z,29.80
2018-09-07T04:46:36.319Z,42.10
2018-09-07T04:51:39.407Z,33.40
2018-09-07T04:56:42.521Z,33.97
2018-09-07T05:01:45.628Z,28.47
2018-09-07T05:06:48.758Z,42.57
2018-09-07T05:11:51.843Z,39.50
2018-09-07T05:16:54.929Z,39.97
2018-09-07T05:21:58.060Z,39.30
2018-09-07T05:27:01.136Z,34.63
2018-09-07T05:32:04.231Z,40.20
2018-09-07T05:37:07.333Z,40.13
2018-09-07T05:42:10.451Z,20.80
2018-09-07T05:47:13.851Z,25.00
2018-09-07T05:52:16.951Z,29.17
2018-09-07T05:57:20.072Z,36.70
2018-09-07T06:02:23.254Z,29.90
2018-09-07T06:07:26.373Z,28.97
2018-09-07T06:12:30.011Z,32.70
2018-09-07T06:17:33.122Z,29.10
2018-09-07T06:22:36.266Z,29.70
2018-09-07T06:27:39.372Z,26.20
2018-09-07T06:32:42.579Z,29.40
2018-09-07T06:37:45.619Z,28.50
2018-09-07T06:42:48.744Z,26.27
2018-09-07T06:47:51.851Z,23.77
2018-09-07T06:52:54.952Z,27.80
2018-09-07T06:57:58.072Z,19.47
2018-09-07T07:03:01.248Z,23.20
2018-09-07T07:08:11.115Z,20.40
2018-09-07T07:13:14.244Z,20.47
2018-09-07T07:18:17.364Z,16.17
2018-09-07T07:23:20.471Z,17.63
2018-09-07T07:28:23.637Z,18.37
2018-09-07T07:33:26.740Z,17.60
2018-09-07T07:38:30.736Z,18.43
2018-09-07T07:43:33.862Z,19.90
2018-09-07T07:48:37.010Z,16.43
2018-09-07T07:53:40.120Z,16.40
2018-09-07T07:58:43.248Z,12.20
2018-09-07T08:03:46.351Z,9.70
2018-09-07T08:08:49.448Z,10.23
2018-09-07T08:13:52.574Z,9.30
2018-09-07T08:18:55.667Z,8.40
2018-09-07T08:23:58.780Z,6.40
2018-09-07T08:29:01.872Z,6.97
2018-09-07T08:34:05.338Z,8.20
2018-09-07T08:39:08.814Z,7.77
2018-09-07T08:44:11.995Z,5.63
2018-09-07T08:49:15.112Z,6.30
2018-09-07T08:54:18.383Z,6.10
2018-09-07T08:59:21.511Z,6.43
2018-09-07T09:04:24.611Z,5.27
2018-09-07T09:09:27.841Z,6.40
2018-09-07T09:14:30.944Z,6.17
2018-09-07T09:19:34.048Z,8.30
2018-09-07T09:24:37.309Z,6.50
2018-09-07T09:29:40.249Z,7.20
2018-09-07T09:34:43.362Z,4.50
2018-09-07T09:39:46.487Z,3.50
2018-09-07T09:44:49.599Z,3.83
2018-09-07T09:49:52.719Z,3.87
2018-09-07T09:54:55.821Z,4.30
2018-09-07T09:59:59.255Z,3.67
2018-09-07T10:05:02.334Z,3.87
2018-09-07T10:10:05.530Z,3.50
2018-09-07T10:15:08.647Z,4.30
2018-09-07T10:20:11.792Z,3.80
2018-09-07T10:25:14.976Z,4.60
2018-09-07T10:30:18.059Z,3.10
2018-09-07T10:35:21.171Z,2.83
2018-09-07T10:40:24.283Z,3.77
2018-09-07T10:45:27.395Z,2.87
2018-09-07T10:50:30.487Z,3.20
2018-09-07T10:55:33.583Z,3.27
2018-09-07T11:00:36.696Z,3.10
2018-09-07T11:05:39.795Z,3.30
2018-09-07T11:10:43.363Z,3.40
2018-09-07T11:15:46.465Z,3.20
2018-09-07T11:20:49.600Z,3.80
2018-09-07T11:25:52.679Z,3.10
2018-09-07T11:30:55.791Z,3.43
2018-09-07T11:35:58.894Z,3.03
2018-09-07T11:41:02.093Z,3.40
2018-09-07T11:46:05.522Z,3.20
2018-09-07T11:51:08.635Z,3.73
2018-09-07T11:56:11.779Z,4.40
2018-09-07T12:01:14.890Z,3.47
2018-09-07T12:06:18.026Z,3.97
2018-09-07T12:11:21.127Z,3.27
2018-09-07T12:16:24.235Z,3.03
2018-09-07T12:21:27.360Z,3.50
2018-09-07T12:26:30.463Z,3.30
2018-09-07T12:31:33.603Z,4.00
2018-09-07T12:36:36.715Z,3.30
2018-09-07T12:41:41.315Z,3.03
2018-09-07T12:46:44.733Z,3.67
2018-09-07T12:51:47.863Z,3.93
2018-09-07T12:56:50.964Z,3.97
2018-09-07T13:01:54.076Z,5.37
2018-09-07T13:06:57.697Z,4.67
2018-09-07T13:17:10.219Z,5.20
2018-09-07T13:22:13.411Z,5.00
2018-09-07T13:27:16.510Z,6.80
2018-09-07T13:32:19.620Z,7.70
2018-09-07T13:37:22.836Z,8.30
2018-09-07T13:42:25.996Z,8.20
2018-09-07T13:47:29.147Z,8.90
2018-09-07T13:52:32.249Z,8.33
2018-09-07T13:57:35.361Z,10.83
2018-09-07T14:02:38.467Z,8.53
2018-09-07T14:07:41.549Z,8.40
2018-09-07T14:12:44.675Z,9.23
2018-09-07T14:17:47.775Z,8.10
2018-09-07T14:22:50.879Z,7.67
2018-09-07T14:27:54.020Z,9.50
2018-09-07T14:32:57.119Z,8.90
2018-09-07T14:38:00.203Z,8.90
2018-09-07T14:43:03.282Z,9.23
2018-09-07T14:48:06.399Z,11.37
2018-09-07T14:53:09.527Z,10.57
2018-09-07T14:58:12.713Z,10.67
2018-09-07T15:03:15.764Z,9.67
2018-09-07T15:08:19.140Z,11.10
2018-09-07T15:13:22.284Z,9.20
2018-09-07T15:18:25.400Z,8.40
2018-09-07T15:23:28.495Z,6.57
2018-09-07T15:28:31.599Z,5.40
2018-09-07T15:33:34.765Z,4.23
2018-09-07T15:38:37.918Z,4.30
2018-09-07T15:43:41.117Z,2.80
2018-09-07T15:48:44.328Z,3.30
2018-09-07T15:53:47.524Z,3.27
2018-09-07T15:58:50.683Z,3.20
2018-09-07T16:03:53.731Z,3.13
2018-09-07T16:08:56.843Z,3.80
2018-09-07T16:13:59.956Z,3.13
2018-09-07T16:19:03.051Z,2.50
2018-09-07T16:24:06.595Z,2.80
2018-09-07T16:29:09.860Z,2.93
2018-09-07T16:34:12.905Z,3.17
2018-09-07T16:39:16.031Z,2.93
2018-09-07T16:44:19.227Z,2.67
2018-09-07T16:49:22.441Z,3.20
2018-09-07T16:54:25.592Z,3.17
2018-09-07T16:59:28.791Z,3.00
2018-09-07T17:04:31.971Z,2.57
2018-09-07T17:09:35.084Z,2.63
2018-09-07T17:14:38.298Z,3.30
2018-09-07T17:19:41.491Z,3.70
2018-09-07T17:24:44.778Z,2.60
2018-09-07T17:29:47.979Z,2.57
2018-09-07T17:34:51.067Z,3.07
2018-09-07T17:39:54.160Z,4.00
2018-09-07T17:44:57.338Z,3.40
2018-09-07T17:50:00.450Z,2.90
2018-09-07T17:55:03.559Z,3.27
2018-09-07T18:00:06.645Z,2.90
2018-09-07T18:05:14.000Z,2.37
2018-09-07T18:10:17.078Z,3.00
2018-09-07T18:15:20.290Z,3.20
2018-09-07T18:20:23.466Z,3.03
2018-09-07T18:25:26.560Z,3.07
2018-09-07T18:30:29.672Z,3.47
2018-09-07T18:35:33.083Z,3.10
2018-09-07T18:40:35.920Z,3.53
2018-09-07T18:45:39.032Z,3.20
2018-09-07T18:50:42.135Z,2.57
2018-09-07T18:55:45.251Z,3.47
2018-09-07T19:00:49.157Z,3.43
2018-09-07T19:05:52.271Z,3.83
2018-09-07T19:10:55.383Z,3.00
2018-09-07T19:15:58.524Z,4.17
2018-09-07T19:21:01.651Z,4.13
2018-09-07T19:26:04.947Z,3.60
2018-09-07T19:31:08.075Z,3.37
2018-09-07T19:36:11.228Z,3.40
2018-09-07T19:41:14.384Z,4.10
2018-09-07T19:46:17.457Z,4.20
2018-09-07T19:51:20.537Z,3.30
2018-09-07T19:56:23.872Z,3.70
2018-09-07T20:01:26.984Z,2.67
2018-09-07T20:06:30.114Z,4.40
2018-09-07T20:11:33.364Z,3.93
2018-09-07T20:16:36.463Z,3.37
2018-09-07T20:21:39.541Z,3.93
2018-09-07T20:26:42.676Z,3.93
2018-09-07T20:31:45.876Z,3.80
2018-09-07T20:36:48.994Z,3.20
2018-09-07T20:41:52.120Z,3.37
2018-09-07T20:46:55.238Z,3.40
2018-09-07T20:51:58.483Z,2.60
2018-09-07T20:57:01.620Z,4.17
2018-09-07T21:02:04.842Z,3.70
2018-09-07T21:07:07.970Z,3.90
2018-09-07T21:12:11.112Z,4.27
2018-09-07T21:17:14.311Z,4.47
2018-09-07T21:22:17.406Z,4.20
2018-09-07T21:27:20.528Z,3.57
2018-09-07T21:32:23.652Z,3.07
2018-09-07T21:37:26.764Z,3.57
2018-09-07T21:42:29.880Z,3.30
2018-09-07T21:47:32.976Z,2.87
2018-09-07T21:52:36.069Z,3.13
2018-09-07T21:57:39.188Z,3.20
2018-09-07T22:02:42.308Z,3.30
2018-09-07T22:07:50.855Z,2.70
2018-09-07T22:12:57.899Z,3.50
2018-09-07T22:18:00.971Z,2.77
2018-09-07T22:23:04.094Z,2.40
2018-09-07T22:28:07.259Z,3.00
2018-09-07T22:33:10.383Z,2.80
2018-09-07T22:38:13.526Z,2.17
2018-09-07T22:43:16.633Z,2.30
2018-09-07T22:48:19.755Z,2.40
2018-09-07T22:53:22.879Z,2.30
2018-09-07T22:58:25.972Z,2.37
2018-09-07T23:03:29.067Z,2.73
2018-09-07T23:08:32.170Z,2.40
2018-09-07T23:13:35.267Z,2.13
2018-09-07T23:18:38.716Z,2.13
2018-09-07T23:23:41.827Z,2.03
2018-09-07T23:28:44.931Z,2.00
2018-09-07T23:33:48.016Z,2.37
2018-09-07T23:38:51.188Z,1.90
2018-09-07T23:43:54.283Z,1.97
2018-09-07T23:48:57.416Z,1.87
2018-09-07T23:54:00.544Z,2.10
2018-09-07T23:59:03.676Z,1.97
